createdAt,value
2023-04-30T00:01:46.155Z,95740.13
2023-04-30T00:04:14.053Z,95734.63
2023-04-30T00:06:41.787Z,95733.47
2023-04-30T00:09:10.981Z,95737.75
2023-04-30T00:11:38.738Z,95732.88
2023-04-30T00:14:06.449Z,95735.31
2023-04-30T00:16:34.466Z,95735.56
2023-04-30T00:19:02.213Z,95733.28
2023-04-30T00:21:29.983Z,95736.94
2023-04-30T00:23:57.580Z,95733.69
2023-04-30T00:26:26.666Z,95736.94
2023-04-30T00:28:55.303Z,95737.75
2023-04-30T00:31:22.928Z,95740.84
2023-04-30T00:33:50.769Z,95742.25
2023-04-30T00:36:18.565Z,95750.81
2023-04-30T00:38:46.369Z,95738.56
2023-04-30T00:41:14.538Z,95740.41
2023-04-30T00:43:43.672Z,95744.69
2023-04-30T00:46:11.338Z,95731.66
2023-04-30T00:48:39.396Z,95731.66
2023-04-30T00:51:07.934Z,95721.03
2023-04-30T00:53:36.567Z,95724.66
2023-04-30T00:56:05.329Z,95734.56
2023-04-30T00:58:33.072Z,95740.78
2023-04-30T01:01:02.363Z,95737.53
2023-04-30T01:03:30.689Z,95741.19
2023-04-30T01:05:58.445Z,95751.38
2023-04-30T01:08:27.089Z,95749.00
2023-04-30T01:11:03.035Z,95744.94
2023-04-30T01:13:35.735Z,95752.13
2023-04-30T01:16:13.966Z,95750.72
2023-04-30T01:18:47.667Z,95750.72
2023-04-30T01:21:19.420Z,95759.03
2023-04-30T01:24:07.654Z,95758.03
2023-04-30T01:26:49.804Z,95756.81
2023-04-30T01:29:21.615Z,95748.88
2023-04-30T01:31:49.475Z,95756.81
2023-04-30T01:34:17.167Z,95757.28
2023-04-30T01:36:54.609Z,95751.72
2023-04-30T01:39:47.466Z,95755.31
2023-04-30T01:42:21.933Z,95750.97
2023-04-30T01:45:16.715Z,95752.19
2023-04-30T01:47:51.260Z,95759.44
2023-04-30T01:50:30.961Z,95761.69
2023-04-30T01:53:02.055Z,95761.53
2023-04-30T01:55:35.550Z,95760.06
2023-04-30T01:58:06.315Z,95766.00
2023-04-30T02:00:35.584Z,95768.25
2023-04-30T02:03:03.516Z,95770.09
2023-04-30T02:05:31.276Z,95759.69
2023-04-30T02:07:59.129Z,95758.88
2023-04-30T02:10:29.393Z,95763.72
2023-04-30T02:12:57.564Z,95767.38
2023-04-30T02:15:25.606Z,95763.91
2023-04-30T02:17:54.722Z,95764.31
2023-04-30T02:20:22.416Z,95764.16
2023-04-30T02:22:50.359Z,95768.63
2023-04-30T02:25:18.191Z,95761.31
2023-04-30T02:27:46.249Z,95762.34
2023-04-30T02:30:13.893Z,95771.91
2023-04-30T02:32:41.666Z,95764.97
2023-04-30T02:35:12.009Z,95765.75
2023-04-30T02:37:39.846Z,95762.44
2023-04-30T02:40:09.019Z,95759.25
2023-04-30T02:42:37.130Z,95763.44
2023-04-30T02:45:05.247Z,95757.91
2023-04-30T02:47:32.938Z,95752.88
2023-04-30T02:50:00.673Z,95758.22
2023-04-30T02:52:29.656Z,95752.75
2023-04-30T02:54:57.301Z,95752.47
2023-04-30T02:57:24.899Z,95749.59
2023-04-30T02:59:52.710Z,95743.03
2023-04-30T03:02:21.829Z,95750.44
2023-04-30T03:04:49.726Z,95752.19
2023-04-30T03:07:17.386Z,95745.66
2023-04-30T03:09:47.704Z,95749.69
2023-04-30T03:12:15.504Z,95738.28
2023-04-30T03:14:44.152Z,95742.69
2023-04-30T03:17:11.787Z,95745.94
2023-04-30T03:19:39.475Z,95751.41
2023-04-30T03:22:07.093Z,95752.34
2023-04-30T03:24:35.372Z,95754.78
2023-04-30T03:27:04.456Z,95752.53
2023-04-30T03:29:32.099Z,95752.34
2023-04-30T03:31:59.753Z,95749.25
2023-04-30T03:34:27.456Z,95749.50
2023-04-30T03:36:55.346Z,95738.56
2023-04-30T03:39:22.937Z,95746.97
2023-04-30T03:41:50.695Z,95742.31
2023-04-30T03:44:19.680Z,95748.03
2023-04-30T03:46:47.285Z,95749.31
2023-04-30T03:49:15.057Z,95741.63
2023-04-30T03:51:42.674Z,95745.72
2023-04-30T03:54:10.904Z,95744.41
2023-04-30T03:56:39.137Z,95744.25
2023-04-30T03:59:07.179Z,95743.41
2023-04-30T04:01:36.317Z,95736.72
2023-04-30T04:04:04.339Z,95738.00
2023-04-30T04:06:33.541Z,95738.81
2023-04-30T04:09:01.430Z,95739.63
2023-04-30T04:11:29.043Z,95736.34
2023-04-30T04:13:58.067Z,95742.38
2023-04-30T04:16:26.733Z,95749.50
2023-04-30T04:18:55.972Z,95756.84
2023-04-30T04:21:24.108Z,95759.38
2023-04-30T04:23:52.226Z,95761.47
2023-04-30T04:26:21.500Z,95768.22
2023-04-30T04:28:49.392Z,95768.94
2023-04-30T04:31:17.152Z,95768.59
2023-04-30T04:33:45.621Z,95775.31
2023-04-30T04:36:14.615Z,95772.75
2023-04-30T04:38:42.371Z,95777.03
2023-04-30T04:41:10.184Z,95773.56
2023-04-30T04:43:38.497Z,95777.66
2023-04-30T04:46:06.552Z,95776.47
2023-04-30T04:48:34.286Z,95778.91
2023-04-30T04:51:01.988Z,95772.06
2023-04-30T04:53:32.956Z,95779.56
2023-04-30T04:56:02.379Z,95777.47
2023-04-30T04:58:30.159Z,95776.03
2023-04-30T05:01:00.011Z,95770.75
2023-04-30T05:03:28.077Z,95774.44
2023-04-30T05:05:56.640Z,95778.91
2023-04-30T05:08:24.763Z,95779.69
2023-04-30T05:10:53.889Z,95786.28
2023-04-30T05:13:21.529Z,95774.91
2023-04-30T05:15:52.262Z,95783.88
2023-04-30T05:18:20.120Z,95790.38
2023-04-30T05:20:48.041Z,95791.91
2023-04-30T05:23:15.660Z,95784.97
2023-04-30T05:25:43.290Z,95792.69
2023-04-30T05:28:12.420Z,95786.00
2023-04-30T05:30:40.168Z,95786.13
2023-04-30T05:33:07.801Z,95786.63
2023-04-30T05:35:36.400Z,95792.47
2023-04-30T05:38:04.193Z,95784.31
2023-04-30T05:40:31.901Z,95782.03
2023-04-30T05:42:59.891Z,95791.69
2023-04-30T05:45:29.729Z,95781.59
2023-04-30T05:47:57.400Z,95786.50
2023-04-30T05:50:25.049Z,95783.53
2023-04-30T05:52:52.654Z,95778.38
2023-04-30T05:55:20.382Z,95782.84
2023-04-30T05:57:48.292Z,95787.66
2023-04-30T06:00:16.890Z,95787.28
2023-04-30T06:02:45.865Z,95787.63
2023-04-30T06:05:15.966Z,95783.81
2023-04-30T06:07:43.936Z,95785.03
2023-04-30T06:10:12.538Z,95784.69
2023-04-30T06:12:40.288Z,95779.53
2023-04-30T06:15:08.743Z,95787.09
2023-04-30T06:17:36.408Z,95775.22
2023-04-30T06:20:07.218Z,95787.56
2023-04-30T06:22:35.054Z,95776.97
2023-04-30T06:25:03.860Z,95778.47
2023-04-30T06:27:32.403Z,95783.25
2023-04-30T06:30:01.176Z,95784.16
2023-04-30T06:32:28.905Z,95777.91
2023-04-30T06:34:56.876Z,95777.41
2023-04-30T06:37:25.894Z,95779.03
2023-04-30T06:39:53.962Z,95785.34
2023-04-30T06:42:22.012Z,95776.59
2023-04-30T06:44:49.868Z,95782.56
2023-04-30T06:47:17.480Z,95780.34
2023-04-30T06:49:45.236Z,95779.94
2023-04-30T06:52:13.011Z,95780.34
2023-04-30T06:54:42.885Z,95791.81
2023-04-30T06:57:10.912Z,95786.88
2023-04-30T06:59:39.329Z,95785.72
2023-04-30T07:02:07.625Z,95786.09
2023-04-30T07:04:35.378Z,95785.47
2023-04-30T07:07:03.138Z,95787.78
2023-04-30T07:09:30.971Z,95785.91
2023-04-30T07:12:00.206Z,95790.16
2023-04-30T07:14:27.802Z,95790.16
2023-04-30T07:16:55.532Z,95783.44
2023-04-30T07:19:23.830Z,95779.19
2023-04-30T07:21:51.581Z,95779.59
2023-04-30T07:24:19.329Z,95784.94
2023-04-30T07:26:46.943Z,95783.69
2023-04-30T07:29:16.240Z,95778.44
2023-04-30T07:31:44.001Z,95784.13
2023-04-30T07:34:11.866Z,95779.44
2023-04-30T07:36:39.725Z,95777.41
2023-04-30T07:39:07.978Z,95780.94
2023-04-30T07:41:35.877Z,95784.97
2023-04-30T07:44:03.498Z,95774.97
2023-04-30T07:46:32.939Z,95771.69
2023-04-30T07:49:00.664Z,95773.94
2023-04-30T07:51:29.132Z,95772.69
2023-04-30T07:53:56.746Z,95767.41
2023-04-30T07:56:24.707Z,95770.22
2023-04-30T07:58:52.357Z,95767.69
2023-04-30T08:01:20.218Z,95768.00
2023-04-30T08:03:49.306Z,95766.19
2023-04-30T08:06:17.036Z,95771.56
2023-04-30T08:08:44.671Z,95769.56
2023-04-30T08:11:12.508Z,95768.16
2023-04-30T08:13:40.190Z,95766.03
2023-04-30T08:16:07.857Z,95769.44
2023-04-30T08:18:37.266Z,95773.91
2023-04-30T08:21:06.671Z,95766.22
2023-04-30T08:23:34.302Z,95766.22
2023-04-30T08:26:02.523Z,95767.94
2023-04-30T08:28:30.110Z,95759.91
2023-04-30T08:30:58.007Z,95762.81
2023-04-30T08:33:25.696Z,95767.97
2023-04-30T08:35:53.894Z,95762.19
2023-04-30T08:38:22.825Z,95760.13
2023-04-30T08:40:57.507Z,95772.56
2023-04-30T08:43:25.213Z,95768.38
2023-04-30T08:45:53.101Z,95772.50
2023-04-30T08:48:24.736Z,95759.53
2023-04-30T08:50:52.342Z,95756.94
2023-04-30T08:53:22.018Z,95756.03
2023-04-30T08:55:51.124Z,95751.63
2023-04-30T08:58:18.843Z,95771.56
2023-04-30T09:00:46.634Z,95771.13
2023-04-30T09:03:14.726Z,95770.06
2023-04-30T09:05:42.705Z,95760.06
2023-04-30T09:08:10.357Z,95763.63
2023-04-30T09:10:38.102Z,95757.63
2023-04-30T09:13:08.906Z,95758.03
2023-04-30T09:15:37.941Z,95757.41
2023-04-30T09:18:14.456Z,95758.69
2023-04-30T09:20:56.431Z,95768.69
2023-04-30T09:23:25.213Z,95764.75
2023-04-30T09:25:52.791Z,95767.59
2023-04-30T09:28:25.665Z,95767.50
2023-04-30T09:30:54.260Z,95761.66
2023-04-30T09:33:21.959Z,95764.03
2023-04-30T09:35:49.894Z,95761.13
2023-04-30T09:38:28.461Z,95761.63
2023-04-30T09:40:57.113Z,95762.78
2023-04-30T09:43:26.310Z,95764.13
2023-04-30T09:45:53.961Z,95756.69
2023-04-30T09:48:22.984Z,95764.41
2023-04-30T09:50:51.452Z,95758.47
2023-04-30T09:53:20.308Z,95750.81
2023-04-30T09:55:49.685Z,95759.34
2023-04-30T09:58:19.486Z,95754.63
2023-04-30T10:00:49.451Z,95752.66
2023-04-30T10:03:17.437Z,95751.59
2023-04-30T10:05:47.188Z,95760.28
2023-04-30T10:08:20.513Z,95756.31
2023-04-30T10:10:56.597Z,95752.84
2023-04-30T10:13:27.547Z,95747.72
2023-04-30T10:16:00.322Z,95743.34
2023-04-30T10:18:31.152Z,95743.28
2023-04-30T10:21:03.854Z,95744.47
2023-04-30T10:23:31.718Z,95736.25
2023-04-30T10:26:00.123Z,95743.28
2023-04-30T10:28:28.381Z,95730.72
2023-04-30T10:30:58.725Z,95729.84
2023-04-30T10:33:33.245Z,95726.75
2023-04-30T10:36:02.695Z,95728.06
2023-04-30T10:38:32.568Z,95716.19
2023-04-30T10:41:01.780Z,95722.38
2023-04-30T10:43:31.987Z,95714.16
2023-04-30T10:46:01.179Z,95711.81
2023-04-30T10:48:31.149Z,95713.69
2023-04-30T10:51:00.338Z,95710.44
2023-04-30T10:53:32.295Z,95704.38
2023-04-30T10:56:06.466Z,95713.91
2023-04-30T10:58:35.987Z,95719.22
2023-04-30T11:01:08.545Z,95715.06
2023-04-30T11:03:38.091Z,95712.31
2023-04-30T11:06:14.640Z,95719.94
2023-04-30T11:08:45.811Z,95711.59
2023-04-30T11:11:18.399Z,95714.16
2023-04-30T11:13:47.017Z,95708.34
2023-04-30T11:16:17.640Z,95712.84
2023-04-30T11:18:46.508Z,95711.03
2023-04-30T11:21:14.625Z,95704.25
2023-04-30T11:23:44.008Z,95708.81
2023-04-30T11:26:11.904Z,95710.41
2023-04-30T11:28:39.720Z,95704.69
2023-04-30T11:31:07.435Z,95702.38
2023-04-30T11:33:36.728Z,95698.72
2023-04-30T11:36:04.667Z,95698.06
2023-04-30T11:38:36.168Z,95700.16
2023-04-30T11:41:05.134Z,95696.09
2023-04-30T11:43:34.548Z,95696.06
2023-04-30T11:46:08.524Z,95694.25
2023-04-30T11:48:39.181Z,95684.06
2023-04-30T11:51:15.347Z,95696.66
2023-04-30T11:53:43.497Z,95690.00
2023-04-30T11:56:11.054Z,95685.63
2023-04-30T11:58:40.369Z,95688.56
2023-04-30T12:01:09.450Z,95677.34
2023-04-30T12:03:44.195Z,95686.19
2023-04-30T12:06:12.857Z,95685.88
2023-04-30T12:08:42.956Z,95690.94
2023-04-30T12:11:21.694Z,95678.69
2023-04-30T12:13:53.912Z,95676.75
2023-04-30T12:16:21.766Z,95672.75
2023-04-30T12:18:52.775Z,95678.50
2023-04-30T12:21:22.514Z,95675.94
2023-04-30T12:23:50.399Z,95666.03
2023-04-30T12:26:18.095Z,95673.75
2023-04-30T12:28:48.366Z,95669.31
2023-04-30T12:31:18.063Z,95662.13
2023-04-30T12:33:45.719Z,95664.75
2023-04-30T12:36:14.744Z,95662.25
2023-04-30T12:38:43.939Z,95667.59
2023-04-30T12:41:13.634Z,95657.25
2023-04-30T12:43:41.256Z,95653.34
2023-04-30T12:46:08.960Z,95651.28
2023-04-30T12:48:45.767Z,95648.84
2023-04-30T12:51:20.955Z,95640.16
2023-04-30T12:53:49.086Z,95646.63
2023-04-30T12:56:19.594Z,95637.16
2023-04-30T12:58:51.152Z,95635.81
2023-04-30T13:01:21.542Z,95633.34
2023-04-30T13:03:49.399Z,95630.13
2023-04-30T13:06:18.553Z,95633.47
2023-04-30T13:08:57.827Z,95625.00
2023-04-30T13:11:27.709Z,95623.34
2023-04-30T13:13:56.119Z,95628.84
2023-04-30T13:16:25.654Z,95628.53
2023-04-30T13:18:55.809Z,95623.81
2023-04-30T13:21:25.855Z,95615.03
2023-04-30T13:23:59.728Z,95611.88
2023-04-30T13:26:28.631Z,95610.28
2023-04-30T13:28:56.522Z,95604.34
2023-04-30T13:31:24.276Z,95611.09
2023-04-30T13:33:51.916Z,95604.59
2023-04-30T13:36:19.618Z,95597.59
2023-04-30T13:38:48.778Z,95599.91
2023-04-30T13:41:16.693Z,95597.28
2023-04-30T13:43:46.240Z,95597.47
2023-04-30T13:46:14.392Z,95589.63
2023-04-30T13:48:42.717Z,95584.72
2023-04-30T13:51:10.638Z,95586.41
2023-04-30T13:53:38.474Z,95591.13
2023-04-30T13:56:08.139Z,95580.78
2023-04-30T13:58:35.823Z,95585.31
2023-04-30T14:01:03.748Z,95588.66
2023-04-30T14:03:31.533Z,95593.94
2023-04-30T14:05:59.349Z,95597.06
2023-04-30T14:08:27.171Z,95602.72
2023-04-30T14:10:54.833Z,95597.94
2023-04-30T14:13:23.977Z,95593.44
2023-04-30T14:15:51.909Z,95588.94
2023-04-30T14:18:22.588Z,95586.97
2023-04-30T14:20:51.063Z,95588.50
2023-04-30T14:23:18.750Z,95586.94
2023-04-30T14:25:46.488Z,95593.75
2023-04-30T14:28:14.111Z,95592.22
2023-04-30T14:30:43.742Z,95588.41
2023-04-30T14:33:12.939Z,95594.03
2023-04-30T14:35:41.623Z,95593.09
2023-04-30T14:38:09.349Z,95589.56
2023-04-30T14:40:37.384Z,95586.66
2023-04-30T14:43:05.070Z,95581.59
2023-04-30T14:45:34.035Z,95576.91
2023-04-30T14:48:05.456Z,95576.44
2023-04-30T14:50:33.574Z,95570.44
2023-04-30T14:53:01.280Z,95574.25
2023-04-30T14:55:29.195Z,95578.53
2023-04-30T14:57:56.940Z,95566.75
2023-04-30T15:00:24.815Z,95563.59
2023-04-30T15:02:52.528Z,95568.63
2023-04-30T15:05:22.244Z,95562.91
2023-04-30T15:07:49.843Z,95564.88
2023-04-30T15:10:18.343Z,95569.00
2023-04-30T15:12:45.977Z,95565.56
2023-04-30T15:15:13.770Z,95550.78
2023-04-30T15:17:41.516Z,95549.97
2023-04-30T15:20:10.559Z,95548.00
2023-04-30T15:22:39.523Z,95547.03
2023-04-30T15:25:07.906Z,95543.16
2023-04-30T15:27:36.752Z,95547.03
2023-04-30T15:30:04.951Z,95545.69
2023-04-30T15:32:32.528Z,95542.09
2023-04-30T15:35:00.465Z,95540.81
2023-04-30T15:37:28.061Z,95527.59
2023-04-30T15:39:57.177Z,95534.41
2023-04-30T15:42:25.065Z,95524.16
2023-04-30T15:44:53.053Z,95527.09
2023-04-30T15:47:23.188Z,95529.91
2023-04-30T15:49:51.535Z,95529.41
2023-04-30T15:52:19.254Z,95528.88
2023-04-30T15:54:46.939Z,95529.97
2023-04-30T15:57:16.119Z,95527.06
2023-04-30T15:59:43.787Z,95523.13
2023-04-30T16:02:11.893Z,95524.81
2023-04-30T16:04:39.715Z,95525.97
2023-04-30T16:07:07.482Z,95521.50
2023-04-30T16:09:35.169Z,95526.28
2023-04-30T16:12:02.968Z,95529.22
2023-04-30T16:14:31.981Z,95519.16
2023-04-30T16:16:59.835Z,95527.38
2023-04-30T16:19:27.512Z,95522.84
2023-04-30T16:21:55.421Z,95519.03
2023-04-30T16:24:22.997Z,95516.75
2023-04-30T16:26:50.840Z,95524.22
2023-04-30T16:29:18.582Z,95512.22
2023-04-30T16:31:48.288Z,95527.25
2023-04-30T16:34:15.970Z,95520.44
2023-04-30T16:36:43.590Z,95519.56
2023-04-30T16:39:12.306Z,95518.22
2023-04-30T16:41:39.908Z,95520.44
2023-04-30T16:44:07.557Z,95518.97
2023-04-30T16:46:36.205Z,95517.97
2023-04-30T16:49:05.255Z,95516.00
2023-04-30T16:51:33.219Z,95516.22
2023-04-30T16:54:00.881Z,95513.97
2023-04-30T16:56:28.579Z,95508.53
2023-04-30T16:58:56.364Z,95519.72
2023-04-30T17:01:24.156Z,95507.16
2023-04-30T17:03:52.212Z,95505.22
2023-04-30T17:06:21.406Z,95507.88
2023-04-30T17:08:49.008Z,95504.75
2023-04-30T17:11:19.091Z,95515.38
2023-04-30T17:13:46.713Z,95510.16
2023-04-30T17:16:14.453Z,95517.69
2023-04-30T17:18:42.101Z,95518.56
2023-04-30T17:21:10.022Z,95523.44
2023-04-30T17:23:38.916Z,95518.41
2023-04-30T17:26:06.676Z,95524.91
2023-04-30T17:28:34.625Z,95527.63
2023-04-30T17:31:03.921Z,95528.06
2023-04-30T17:33:31.779Z,95522.31
2023-04-30T17:35:59.765Z,95525.84
2023-04-30T17:38:28.277Z,95522.34
2023-04-30T17:40:57.810Z,95521.13
2023-04-30T17:43:25.785Z,95517.16
2023-04-30T17:45:54.373Z,95517.69
2023-04-30T17:48:22.078Z,95518.66
2023-04-30T17:50:49.854Z,95515.69
2023-04-30T17:53:17.468Z,95512.50
2023-04-30T17:55:45.490Z,95513.56
2023-04-30T17:58:14.443Z,95516.56
2023-04-30T18:00:43.217Z,95523.72
2023-04-30T18:03:11.209Z,95511.91
2023-04-30T18:05:39.555Z,95518.31
2023-04-30T18:08:07.514Z,95519.13
2023-04-30T18:10:35.124Z,95516.06
2023-04-30T18:13:02.987Z,95515.41
2023-04-30T18:15:32.009Z,95507.88
2023-04-30T18:18:00.246Z,95512.59
2023-04-30T18:20:28.023Z,95509.56
2023-04-30T18:22:56.050Z,95507.81
2023-04-30T18:25:23.663Z,95511.50
2023-04-30T18:27:51.293Z,95514.22
2023-04-30T18:30:18.919Z,95517.25
2023-04-30T18:32:48.064Z,95518.88
2023-04-30T18:35:15.974Z,95516.25
2023-04-30T18:37:43.712Z,95515.28
2023-04-30T18:40:11.898Z,95520.59
2023-04-30T18:42:39.550Z,95528.34
2023-04-30T18:45:09.073Z,95541.84
2023-04-30T18:47:36.847Z,95537.75
2023-04-30T18:50:07.719Z,95543.09
2023-04-30T18:52:35.467Z,95543.91
2023-04-30T18:55:03.143Z,95546.81
2023-04-30T18:57:30.976Z,95557.44
2023-04-30T18:59:58.733Z,95550.09
2023-04-30T19:02:26.868Z,95556.25
2023-04-30T19:04:55.145Z,95557.28
2023-04-30T19:07:24.358Z,95559.13
2023-04-30T19:09:53.425Z,95563.19
2023-04-30T19:12:21.618Z,95569.31
2023-04-30T19:14:49.524Z,95571.16
2023-04-30T19:17:20.172Z,95563.19
2023-04-30T19:19:50.171Z,95554.19
2023-04-30T19:22:18.143Z,95561.56
2023-04-30T19:24:47.119Z,95561.56
2023-04-30T19:27:14.762Z,95563.63
2023-04-30T19:29:42.799Z,95553.00
2023-04-30T19:32:10.720Z,95564.06
2023-04-30T19:34:39.093Z,95558.13
2023-04-30T19:37:07.062Z,95557.56
2023-04-30T19:39:36.700Z,95555.91
2023-04-30T19:42:06.215Z,95561.63
2023-04-30T19:44:34.559Z,95556.34
2023-04-30T19:47:02.394Z,95558.16
2023-04-30T19:49:30.242Z,95553.88
2023-04-30T19:51:59.214Z,95557.16
2023-04-30T19:54:27.061Z,95552.69
2023-04-30T19:56:54.670Z,95553.28
2023-04-30T19:59:24.044Z,95551.88
2023-04-30T20:01:53.330Z,95551.25
2023-04-30T20:04:21.681Z,95546.97
2023-04-30T20:06:55.938Z,95555.13
2023-04-30T20:09:24.189Z,95552.28
2023-04-30T20:11:52.061Z,95548.81
2023-04-30T20:14:20.110Z,95542.91
2023-04-30T20:16:53.970Z,95547.19
2023-04-30T20:19:23.003Z,95550.84
2023-04-30T20:21:51.389Z,95548.84
2023-04-30T20:24:19.434Z,95547.44
2023-04-30T20:26:47.050Z,95541.91
2023-04-30T20:29:15.071Z,95538.84
2023-04-30T20:31:43.059Z,95542.13
2023-04-30T20:34:12.165Z,95538.44
2023-04-30T20:36:39.904Z,95536.63
2023-04-30T20:39:08.740Z,95529.88
2023-04-30T20:41:36.669Z,95536.84
2023-04-30T20:44:04.998Z,95534.59
2023-04-30T20:46:32.663Z,95537.66
2023-04-30T20:49:04.558Z,95526.03
2023-04-30T20:51:33.557Z,95539.25
2023-04-30T20:54:01.335Z,95538.00
2023-04-30T20:56:29.297Z,95538.81
2023-04-30T20:58:57.310Z,95533.13
2023-04-30T21:01:24.931Z,95531.91
2023-04-30T21:03:52.779Z,95524.53
2023-04-30T21:06:20.485Z,95525.72
2023-04-30T21:08:49.650Z,95522.28
2023-04-30T21:11:18.886Z,95532.63
2023-04-30T21:13:47.020Z,95533.03
2023-04-30T21:16:15.641Z,95534.44
2023-04-30T21:18:44.329Z,95535.88
2023-04-30T21:21:12.114Z,95530.94
2023-04-30T21:23:40.027Z,95533.00
2023-04-30T21:26:09.173Z,95535.44
2023-04-30T21:28:37.098Z,95529.69
2023-04-30T21:31:05.859Z,95518.09
2023-04-30T21:33:33.628Z,95514.19
2023-04-30T21:36:01.615Z,95518.88
2023-04-30T21:38:29.300Z,95513.75
2023-04-30T21:40:57.088Z,95509.66
2023-04-30T21:43:26.044Z,95514.31
2023-04-30T21:45:53.911Z,95507.78
2023-04-30T21:48:21.495Z,95510.81
2023-04-30T21:50:49.832Z,95504.31
2023-04-30T21:53:18.356Z,95502.69
2023-04-30T21:55:45.987Z,95508.75
2023-04-30T21:58:13.627Z,95502.84
2023-04-30T22:00:43.016Z,95509.16
2023-04-30T22:03:10.929Z,95508.28
2023-04-30T22:05:39.907Z,95513.50
2023-04-30T22:08:07.567Z,95499.47
2023-04-30T22:10:35.383Z,95497.84
2023-04-30T22:13:02.977Z,95505.31
2023-04-30T22:15:37.268Z,95502.50
2023-04-30T22:18:16.028Z,95506.97
2023-04-30T22:20:43.874Z,95505.97
2023-04-30T22:23:11.669Z,95509.78
2023-04-30T22:25:39.659Z,95506.16
2023-04-30T22:28:07.339Z,95504.94
2023-04-30T22:30:35.260Z,95500.88
2023-04-30T22:33:03.416Z,95499.22
2023-04-30T22:35:32.954Z,95489.84
2023-04-30T22:38:01.578Z,95501.03
2023-04-30T22:40:29.381Z,95498.19
2023-04-30T22:42:57.038Z,95500.22
2023-04-30T22:45:24.785Z,95497.34
2023-04-30T22:47:53.994Z,95488.41
2023-04-30T22:50:21.981Z,95485.13
2023-04-30T22:52:51.397Z,95472.53
2023-04-30T22:55:19.719Z,95481.88
2023-04-30T22:57:47.350Z,95472.50
2023-04-30T23:00:16.236Z,95476.97
2023-04-30T23:02:44.298Z,95473.69
2023-04-30T23:05:12.791Z,95477.34
2023-04-30T23:07:40.852Z,95464.72
2023-04-30T23:10:11.011Z,95466.94
2023-04-30T23:12:38.760Z,95457.38
2023-04-30T23:15:07.585Z,95463.66
2023-04-30T23:17:35.388Z,95465.69
2023-04-30T23:20:03.152Z,95464.88
2023-04-30T23:22:31.570Z,95468.50
2023-04-30T23:24:59.460Z,95463.41
2023-04-30T23:27:28.787Z,95466.88
2023-04-30T23:29:57.486Z,95459.13
2023-04-30T23:32:26.209Z,95455.88
2023-04-30T23:34:53.949Z,95449.97
2023-04-30T23:37:21.704Z,95449.53
2023-04-30T23:39:49.330Z,95460.28
2023-04-30T23:42:17.204Z,95443.81
2023-04-30T23:44:46.500Z,95450.13
2023-04-30T23:47:14.369Z,95451.50
2023-04-30T23:49:44.018Z,95447.22
2023-04-30T23:52:14.370Z,95447.03
2023-04-30T23:54:41.989Z,95441.09
2023-04-30T23:57:10.214Z,95440.44
2023-04-30T23:59:38.076Z,95440.84
